SWR83D EHRD-LSZH
Flight info
| Callsign | SWR83D |
|---|---|
| Flight time | 1h 9m |
| Altitude | 39000 |
| Route | WOODY N872 NIK M624 DIK N852 SUTAL DCT GTQ DCT POGOL DCT LASAT DCT SHARA DCT TUPOV DCT BLM |
| Aircraft | A320/M-SDE3FGHIRWY/LB1 |
Departure
| Time | 2026-05-05 17:51 |
|---|---|
| Airport | Rotterdam The Hague Airport (EHRD) |
Arrival
| Time | 2026-05-05 19:01 |
|---|---|
| Airport | Zürich Airport (LSZH) |
| Time | Latitude | Longitude | Altitude | Speed | Heading |
|---|---|---|---|---|---|
| 2026-05-05 17:26 | 51.95043 | 4.43558 | 1 ft | 0 kts | 327° |
| 2026-05-05 17:46 | 51.95044 | 4.43557 | 28 ft | 2 kts | 327° |
| 2026-05-05 17:46 | 51.95081 | 4.43553 | 1 ft | 7 kts | 45° |
| 2026-05-05 17:47 | 51.95132 | 4.43557 | 2 ft | 9 kts | 325° |
| 2026-05-05 17:47 | 51.95191 | 4.43490 | 1 ft | 11 kts | 328° |
| 2026-05-05 17:47 | 51.95240 | 4.43403 | 1 ft | 11 kts | 267° |
| 2026-05-05 17:47 | 51.95204 | 4.43303 | 1 ft | 10 kts | 233° |
| 2026-05-05 17:48 | 51.95168 | 4.43213 | 2 ft | 9 kts | 238° |
| 2026-05-05 17:48 | 51.95148 | 4.43155 | 1 ft | 9 kts | 245° |
| 2026-05-05 17:48 | 51.95125 | 4.43071 | 1 ft | 8 kts | 245° |
| 2026-05-05 17:48 | 51.95107 | 4.42994 | 1 ft | 7 kts | 267° |
| 2026-05-05 17:49 | 51.95139 | 4.42919 | 1 ft | 11 kts | 327° |
| 2026-05-05 17:49 | 51.95207 | 4.42859 | 2 ft | 11 kts | 352° |
| 2026-05-05 17:49 | 51.95257 | 4.42943 | 2 ft | 7 kts | 59° |
| 2026-05-05 17:49 | 51.95261 | 4.42954 | 2 ft | 0 kts | 58° |
| 2026-05-05 17:50 | 51.95266 | 4.42967 | 2 ft | 7 kts | 58° |
| 2026-05-05 17:51 | 51.95411 | 4.43329 | 0 ft | 76 kts | 57° |
| 2026-05-05 17:51 | 51.95821 | 4.44345 | 14 ft | 135 kts | 56° |
| 2026-05-05 17:51 | 51.96314 | 4.45630 | 652 ft | 135 kts | 55° |
| 2026-05-05 17:51 | 51.96792 | 4.46928 | 1345 ft | 138 kts | 55° |
| 2026-05-05 17:52 | 51.97323 | 4.48362 | 1767 ft | 159 kts | 56° |
| 2026-05-05 17:52 | 51.97925 | 4.49983 | 2109 ft | 181 kts | 56° |
| 2026-05-05 17:52 | 51.98625 | 4.51862 | 2506 ft | 207 kts | 56° |
| 2026-05-05 17:52 | 51.99400 | 4.53986 | 3033 ft | 231 kts | 60° |
| 2026-05-05 17:53 | 52.00129 | 4.56413 | 3806 ft | 244 kts | 63° |
| 2026-05-05 17:53 | 52.00703 | 4.59048 | 4578 ft | 256 kts | 80° |
| 2026-05-05 17:53 | 52.00400 | 4.61922 | 4818 ft | 267 kts | 116° |
| 2026-05-05 17:53 | 51.99130 | 4.64128 | 4887 ft | 274 kts | 144° |
| 2026-05-05 17:54 | 51.97417 | 4.65561 | 4896 ft | 279 kts | 155° |
| 2026-05-05 17:54 | 51.95530 | 4.66509 | 5503 ft | 288 kts | 174° |
| 2026-05-05 17:54 | 51.93568 | 4.66213 | 6713 ft | 282 kts | 195° |
| 2026-05-05 17:54 | 51.91777 | 4.65066 | 7715 ft | 283 kts | 211° |
| 2026-05-05 17:55 | 51.90272 | 4.63019 | 8630 ft | 286 kts | 232° |
| 2026-05-05 17:55 | 51.89079 | 4.60373 | 9601 ft | 289 kts | 235° |
| 2026-05-05 17:55 | 51.87782 | 4.57921 | 10401 ft | 295 kts | 224° |
| 2026-05-05 17:55 | 51.86092 | 4.55824 | 10747 ft | 319 kts | 210° |
| 2026-05-05 17:56 | 51.83988 | 4.54389 | 11135 ft | 337 kts | 194° |
| 2026-05-05 17:56 | 51.81676 | 4.53477 | 11825 ft | 345 kts | 193° |
| 2026-05-05 17:56 | 51.79331 | 4.52532 | 12624 ft | 349 kts | 193° |
| 2026-05-05 17:56 | 51.76961 | 4.51553 | 13426 ft | 353 kts | 194° |
| 2026-05-05 17:57 | 51.74568 | 4.50553 | 14152 ft | 358 kts | 193° |
| 2026-05-05 17:57 | 51.72146 | 4.49538 | 14865 ft | 361 kts | 193° |
| 2026-05-05 17:57 | 51.69695 | 4.48519 | 15537 ft | 366 kts | 193° |
| 2026-05-05 17:57 | 51.67216 | 4.47498 | 16227 ft | 369 kts | 193° |
| 2026-05-05 17:58 | 51.64715 | 4.46475 | 16952 ft | 372 kts | 193° |
| 2026-05-05 17:58 | 51.62195 | 4.45447 | 17626 ft | 376 kts | 193° |
| 2026-05-05 17:58 | 51.59647 | 4.44406 | 18281 ft | 379 kts | 193° |
| 2026-05-05 17:58 | 51.57085 | 4.43360 | 18912 ft | 381 kts | 194° |
| 2026-05-05 17:59 | 51.54510 | 4.42312 | 19588 ft | 382 kts | 193° |
| 2026-05-05 17:59 | 51.51912 | 4.41262 | 20266 ft | 383 kts | 193° |
| 2026-05-05 17:59 | 51.49332 | 4.40219 | 20956 ft | 384 kts | 194° |
| 2026-05-05 17:59 | 51.46747 | 4.39170 | 21694 ft | 383 kts | 194° |
| 2026-05-05 18:00 | 51.44149 | 4.38114 | 22290 ft | 386 kts | 194° |
| 2026-05-05 18:00 | 51.41560 | 4.37047 | 22849 ft | 390 kts | 197° |
| 2026-05-05 18:00 | 51.39023 | 4.35491 | 23436 ft | 392 kts | 206° |
| 2026-05-05 18:00 | 51.36526 | 4.33573 | 23924 ft | 394 kts | 205° |
| 2026-05-05 18:01 | 51.34076 | 4.31702 | 24396 ft | 397 kts | 205° |
| 2026-05-05 18:01 | 51.31576 | 4.29807 | 24867 ft | 399 kts | 205° |
| 2026-05-05 18:01 | 51.29059 | 4.27903 | 25308 ft | 401 kts | 205° |
| 2026-05-05 18:01 | 51.26529 | 4.25985 | 25751 ft | 403 kts | 205° |
| 2026-05-05 18:02 | 51.23950 | 4.24032 | 26147 ft | 407 kts | 204° |
| 2026-05-05 18:02 | 51.21309 | 4.22546 | 26515 ft | 409 kts | 192° |
| 2026-05-05 18:02 | 51.18480 | 4.22020 | 26918 ft | 411 kts | 179° |
| 2026-05-05 18:02 | 51.15637 | 4.22531 | 27328 ft | 413 kts | 167° |
| 2026-05-05 18:03 | 51.12928 | 4.24052 | 27737 ft | 415 kts | 154° |
| 2026-05-05 18:03 | 51.10486 | 4.26529 | 28147 ft | 418 kts | 142° |
| 2026-05-05 18:03 | 51.08249 | 4.29546 | 28552 ft | 420 kts | 140° |
| 2026-05-05 18:03 | 51.06033 | 4.32552 | 28944 ft | 422 kts | 140° |
| 2026-05-05 18:04 | 51.03795 | 4.35582 | 29331 ft | 423 kts | 140° |
| 2026-05-05 18:04 | 51.01549 | 4.38617 | 29713 ft | 425 kts | 140° |
| 2026-05-05 18:04 | 50.99296 | 4.41656 | 30057 ft | 426 kts | 141° |
| 2026-05-05 18:04 | 50.97032 | 4.44703 | 30356 ft | 427 kts | 141° |
| 2026-05-05 18:05 | 50.94759 | 4.47756 | 30637 ft | 429 kts | 141° |
| 2026-05-05 18:05 | 50.92472 | 4.50816 | 30911 ft | 430 kts | 141° |
| 2026-05-05 18:05 | 50.90183 | 4.53883 | 31174 ft | 432 kts | 140° |
| 2026-05-05 18:05 | 50.87950 | 4.57086 | 31448 ft | 433 kts | 138° |
| 2026-05-05 18:06 | 50.85795 | 4.60415 | 31804 ft | 432 kts | 136° |
| 2026-05-05 18:06 | 50.84403 | 4.62652 | 32053 ft | 431 kts | 136° |
| 2026-05-05 18:06 | 50.81611 | 4.67219 | 32529 ft | 430 kts | 136° |
| 2026-05-05 18:06 | 50.79528 | 4.70611 | 32886 ft | 427 kts | 136° |
| 2026-05-05 18:07 | 50.77472 | 4.73903 | 33292 ft | 425 kts | 136° |
| 2026-05-05 18:07 | 50.75390 | 4.77184 | 33726 ft | 421 kts | 137° |
| 2026-05-05 18:07 | 50.73306 | 4.80431 | 34083 ft | 420 kts | 137° |
| 2026-05-05 18:07 | 50.71223 | 4.83658 | 34364 ft | 420 kts | 137° |
| 2026-05-05 18:08 | 50.69137 | 4.86882 | 34608 ft | 421 kts | 137° |
| 2026-05-05 18:08 | 50.67043 | 4.90119 | 34832 ft | 422 kts | 137° |
| 2026-05-05 18:08 | 50.64951 | 4.93359 | 35066 ft | 423 kts | 137° |
| 2026-05-05 18:08 | 50.62850 | 4.96617 | 35288 ft | 424 kts | 137° |
| 2026-05-05 18:09 | 50.60751 | 4.99875 | 35491 ft | 425 kts | 137° |
| 2026-05-05 18:09 | 50.58640 | 5.03149 | 35714 ft | 426 kts | 137° |
| 2026-05-05 18:09 | 50.56528 | 5.06418 | 35910 ft | 427 kts | 137° |
| 2026-05-05 18:09 | 50.54411 | 5.09692 | 36112 ft | 428 kts | 137° |
| 2026-05-05 18:10 | 50.52286 | 5.12975 | 36313 ft | 428 kts | 137° |
| 2026-05-05 18:10 | 50.50148 | 5.16270 | 36534 ft | 429 kts | 137° |
| 2026-05-05 18:10 | 50.48010 | 5.19561 | 36726 ft | 429 kts | 137° |
| 2026-05-05 18:10 | 50.45875 | 5.22844 | 36919 ft | 430 kts | 137° |
| 2026-05-05 18:11 | 50.43763 | 5.26087 | 37103 ft | 431 kts | 137° |
| 2026-05-05 18:11 | 50.41589 | 5.29423 | 37297 ft | 432 kts | 137° |
| 2026-05-05 18:11 | 50.39467 | 5.32675 | 37480 ft | 433 kts | 137° |
| 2026-05-05 18:11 | 50.37311 | 5.35970 | 37647 ft | 433 kts | 137° |
| 2026-05-05 18:12 | 50.35150 | 5.39269 | 37843 ft | 434 kts | 138° |
| 2026-05-05 18:12 | 50.32980 | 5.42578 | 38025 ft | 435 kts | 138° |
| 2026-05-05 18:12 | 50.30813 | 5.45877 | 38205 ft | 435 kts | 138° |
| 2026-05-05 18:12 | 50.28640 | 5.49181 | 38379 ft | 436 kts | 138° |
| 2026-05-05 18:13 | 50.26464 | 5.52488 | 38529 ft | 436 kts | 138° |
| 2026-05-05 18:13 | 50.24286 | 5.55795 | 38657 ft | 437 kts | 138° |
| 2026-05-05 18:13 | 50.22106 | 5.59097 | 38793 ft | 437 kts | 138° |
| 2026-05-05 18:14 | 50.17722 | 5.65724 | 38838 ft | 439 kts | 138° |
| 2026-05-05 18:14 | 50.13332 | 5.72345 | 38838 ft | 439 kts | 138° |
| 2026-05-05 18:15 | 50.08931 | 5.78944 | 38832 ft | 439 kts | 138° |
| 2026-05-05 18:15 | 50.04531 | 5.85542 | 38832 ft | 439 kts | 138° |
| 2026-05-05 18:16 | 50.00116 | 5.92159 | 38834 ft | 441 kts | 138° |
| 2026-05-05 18:16 | 49.95724 | 5.98723 | 38824 ft | 442 kts | 138° |
| 2026-05-05 18:17 | 49.91290 | 6.05329 | 38815 ft | 442 kts | 139° |
| 2026-05-05 18:17 | 49.86763 | 6.11738 | 38818 ft | 440 kts | 146° |
| 2026-05-05 18:18 | 49.81414 | 6.16194 | 38819 ft | 436 kts | 158° |
| 2026-05-05 18:18 | 49.75841 | 6.19960 | 38813 ft | 437 kts | 158° |
| 2026-05-05 18:19 | 49.70270 | 6.23731 | 38814 ft | 438 kts | 158° |
| 2026-05-05 18:19 | 49.64685 | 6.27498 | 38821 ft | 438 kts | 158° |
| 2026-05-05 18:20 | 49.59080 | 6.31220 | 38819 ft | 438 kts | 159° |
| 2026-05-05 18:20 | 49.53457 | 6.34831 | 38829 ft | 438 kts | 160° |
| 2026-05-05 18:21 | 49.47826 | 6.38420 | 38840 ft | 437 kts | 159° |
| 2026-05-05 18:21 | 49.42228 | 6.42092 | 38844 ft | 437 kts | 158° |
| 2026-05-05 18:22 | 49.36672 | 6.45920 | 38852 ft | 437 kts | 158° |
| 2026-05-05 18:22 | 49.31165 | 6.49718 | 38852 ft | 437 kts | 158° |
| 2026-05-05 18:23 | 49.25600 | 6.53512 | 38850 ft | 437 kts | 158° |
| 2026-05-05 18:23 | 49.20035 | 6.57259 | 38848 ft | 437 kts | 158° |
| 2026-05-05 18:24 | 49.14468 | 6.60998 | 38852 ft | 437 kts | 158° |
| 2026-05-05 18:24 | 49.08905 | 6.64731 | 38838 ft | 437 kts | 159° |
| 2026-05-05 18:25 | 49.03345 | 6.68460 | 38849 ft | 436 kts | 159° |
| 2026-05-05 18:25 | 48.97611 | 6.71221 | 38852 ft | 431 kts | 174° |
| 2026-05-05 18:26 | 48.91655 | 6.71349 | 38848 ft | 428 kts | 183° |
| 2026-05-05 18:26 | 48.85691 | 6.71105 | 38848 ft | 428 kts | 183° |
| 2026-05-05 18:27 | 48.79728 | 6.70875 | 38842 ft | 429 kts | 183° |
| 2026-05-05 18:27 | 48.73756 | 6.70644 | 38841 ft | 429 kts | 183° |
| 2026-05-05 18:28 | 48.64837 | 6.70291 | 38842 ft | 429 kts | 183° |
| 2026-05-05 18:28 | 48.58861 | 6.70069 | 38846 ft | 429 kts | 183° |
| 2026-05-05 18:29 | 48.52889 | 6.69839 | 38848 ft | 429 kts | 183° |
| 2026-05-05 18:29 | 48.46914 | 6.69607 | 38849 ft | 429 kts | 183° |
| 2026-05-05 18:30 | 48.40928 | 6.69375 | 38856 ft | 429 kts | 183° |
| 2026-05-05 18:30 | 48.34991 | 6.69148 | 38863 ft | 429 kts | 183° |
| 2026-05-05 18:31 | 48.29019 | 6.68914 | 38861 ft | 429 kts | 183° |
| 2026-05-05 18:31 | 48.23051 | 6.68685 | 38866 ft | 429 kts | 183° |
| 2026-05-05 18:32 | 48.17084 | 6.68459 | 38877 ft | 429 kts | 183° |
| 2026-05-05 18:32 | 48.11114 | 6.68234 | 38644 ft | 430 kts | 183° |
| 2026-05-05 18:33 | 48.09124 | 6.68159 | 37882 ft | 433 kts | 183° |
| 2026-05-05 18:33 | 48.05072 | 6.68020 | 35800 ft | 438 kts | 180° |
| 2026-05-05 18:33 | 48.03059 | 6.68266 | 34851 ft | 441 kts | 171° |
| 2026-05-05 18:33 | 48.00106 | 6.69527 | 33466 ft | 443 kts | 158° |
| 2026-05-05 18:34 | 47.97464 | 6.71802 | 32516 ft | 435 kts | 145° |
| 2026-05-05 18:34 | 47.95278 | 6.74847 | 31954 ft | 429 kts | 133° |
| 2026-05-05 18:34 | 47.93568 | 6.78488 | 31291 ft | 429 kts | 123° |
| 2026-05-05 18:34 | 47.92051 | 6.82305 | 30630 ft | 427 kts | 123° |
| 2026-05-05 18:35 | 47.90558 | 6.86113 | 29975 ft | 425 kts | 123° |
| 2026-05-05 18:35 | 47.89077 | 6.89910 | 29259 ft | 422 kts | 123° |
| 2026-05-05 18:35 | 47.87609 | 6.93673 | 28635 ft | 417 kts | 123° |
| 2026-05-05 18:35 | 47.86156 | 6.97387 | 27999 ft | 413 kts | 123° |
| 2026-05-05 18:36 | 47.84713 | 7.01059 | 27386 ft | 409 kts | 123° |
| 2026-05-05 18:36 | 47.83281 | 7.04692 | 26794 ft | 405 kts | 123° |
| 2026-05-05 18:36 | 47.81860 | 7.08295 | 26208 ft | 401 kts | 124° |
| 2026-05-05 18:36 | 47.80454 | 7.11854 | 25624 ft | 398 kts | 123° |
| 2026-05-05 18:37 | 47.79054 | 7.15389 | 25088 ft | 394 kts | 124° |
| 2026-05-05 18:37 | 47.77662 | 7.18890 | 24520 ft | 392 kts | 124° |
| 2026-05-05 18:37 | 47.76276 | 7.22368 | 24003 ft | 389 kts | 124° |
| 2026-05-05 18:37 | 47.74863 | 7.25772 | 23503 ft | 385 kts | 126° |
| 2026-05-05 18:38 | 47.73376 | 7.29048 | 23017 ft | 380 kts | 128° |
| 2026-05-05 18:38 | 47.71857 | 7.32219 | 22539 ft | 374 kts | 129° |
| 2026-05-05 18:38 | 47.70334 | 7.35324 | 22081 ft | 369 kts | 129° |
| 2026-05-05 18:38 | 47.68861 | 7.38322 | 21768 ft | 355 kts | 129° |
| 2026-05-05 18:39 | 47.67451 | 7.41229 | 21313 ft | 340 kts | 129° |
| 2026-05-05 18:39 | 47.66084 | 7.44073 | 20788 ft | 338 kts | 129° |
| 2026-05-05 18:39 | 47.64724 | 7.46913 | 20339 ft | 337 kts | 129° |
| 2026-05-05 18:39 | 47.63464 | 7.49846 | 19902 ft | 339 kts | 121° |
| 2026-05-05 18:40 | 47.62529 | 7.53081 | 19152 ft | 346 kts | 112° |
| 2026-05-05 18:40 | 47.61762 | 7.56413 | 18595 ft | 337 kts | 112° |
| 2026-05-05 18:40 | 47.60996 | 7.59729 | 18004 ft | 341 kts | 112° |
| 2026-05-05 18:40 | 47.60232 | 7.63019 | 17833 ft | 336 kts | 112° |
| 2026-05-05 18:41 | 47.59467 | 7.66295 | 17635 ft | 338 kts | 112° |
| 2026-05-05 18:41 | 47.58680 | 7.69630 | 16982 ft | 342 kts | 113° |
| 2026-05-05 18:41 | 47.57916 | 7.72886 | 16502 ft | 330 kts | 112° |
| 2026-05-05 18:41 | 47.57177 | 7.76043 | 15864 ft | 326 kts | 113° |
| 2026-05-05 18:42 | 47.56434 | 7.79204 | 15204 ft | 323 kts | 113° |
| 2026-05-05 18:42 | 47.55694 | 7.82335 | 14551 ft | 321 kts | 113° |
| 2026-05-05 18:42 | 47.54958 | 7.85440 | 13913 ft | 319 kts | 113° |
| 2026-05-05 18:42 | 47.54221 | 7.88545 | 13233 ft | 317 kts | 114° |
| 2026-05-05 18:43 | 47.53492 | 7.91616 | 12942 ft | 319 kts | 114° |
| 2026-05-05 18:43 | 47.52758 | 7.94703 | 12883 ft | 317 kts | 114° |
| 2026-05-05 18:43 | 47.52026 | 7.97775 | 12891 ft | 317 kts | 114° |
| 2026-05-05 18:43 | 47.51292 | 8.00856 | 12898 ft | 318 kts | 114° |
| 2026-05-05 18:44 | 47.50555 | 8.03932 | 12902 ft | 317 kts | 115° |
| 2026-05-05 18:44 | 47.49500 | 8.06723 | 12903 ft | 308 kts | 136° |
| 2026-05-05 18:44 | 47.47885 | 8.08696 | 12902 ft | 297 kts | 157° |
| 2026-05-05 18:44 | 47.45973 | 8.09661 | 12906 ft | 288 kts | 177° |
| 2026-05-05 18:45 | 47.44004 | 8.09603 | 12910 ft | 281 kts | 195° |
| 2026-05-05 18:45 | 47.42202 | 8.08609 | 12902 ft | 276 kts | 213° |
| 2026-05-05 18:45 | 47.40739 | 8.06842 | 12624 ft | 271 kts | 230° |
| 2026-05-05 18:45 | 47.39758 | 8.04488 | 12243 ft | 270 kts | 247° |
| 2026-05-05 18:46 | 47.39337 | 8.01788 | 11875 ft | 272 kts | 264° |
| 2026-05-05 18:46 | 47.39521 | 7.98997 | 11496 ft | 276 kts | 279° |
| 2026-05-05 18:46 | 47.40062 | 7.96266 | 11121 ft | 278 kts | 283° |
| 2026-05-05 18:46 | 47.40701 | 7.93583 | 10730 ft | 277 kts | 285° |
| 2026-05-05 18:47 | 47.41374 | 7.90917 | 10365 ft | 276 kts | 285° |
| 2026-05-05 18:47 | 47.42037 | 7.88308 | 10020 ft | 274 kts | 285° |
| 2026-05-05 18:47 | 47.42706 | 7.85688 | 9651 ft | 273 kts | 288° |
| 2026-05-05 18:47 | 47.43724 | 7.83300 | 9255 ft | 279 kts | 306° |
| 2026-05-05 18:48 | 47.45250 | 7.81474 | 8879 ft | 287 kts | 326° |
| 2026-05-05 18:48 | 47.47147 | 7.80483 | 8518 ft | 294 kts | 346° |
| 2026-05-05 18:48 | 47.49208 | 7.80535 | 8156 ft | 301 kts | 8° |
| 2026-05-05 18:48 | 47.51151 | 7.81679 | 7883 ft | 303 kts | 28° |
| 2026-05-05 18:49 | 47.52866 | 7.83512 | 7878 ft | 308 kts | 46° |
| 2026-05-05 18:49 | 47.53975 | 7.86202 | 7882 ft | 308 kts | 73° |
| 2026-05-05 18:49 | 47.54333 | 7.89297 | 7882 ft | 303 kts | 96° |
| 2026-05-05 18:49 | 47.54097 | 7.92382 | 7888 ft | 301 kts | 103° |
| 2026-05-05 18:50 | 47.53770 | 7.95364 | 7886 ft | 284 kts | 103° |
| 2026-05-05 18:50 | 47.53459 | 7.98169 | 7895 ft | 272 kts | 104° |
| 2026-05-05 18:50 | 47.53160 | 8.00923 | 7898 ft | 270 kts | 103° |
| 2026-05-05 18:50 | 47.52866 | 8.03661 | 7903 ft | 269 kts | 104° |
| 2026-05-05 18:51 | 47.52574 | 8.06383 | 7907 ft | 268 kts | 103° |
| 2026-05-05 18:51 | 47.52278 | 8.09102 | 7902 ft | 267 kts | 103° |
| 2026-05-05 18:51 | 47.51784 | 8.11711 | 7897 ft | 259 kts | 124° |
| 2026-05-05 18:51 | 47.50801 | 8.13910 | 7904 ft | 255 kts | 133° |
| 2026-05-05 18:52 | 47.49742 | 8.16017 | 7905 ft | 256 kts | 133° |
| 2026-05-05 18:52 | 47.48671 | 8.18112 | 7906 ft | 255 kts | 134° |
| 2026-05-05 18:52 | 47.47594 | 8.20202 | 7909 ft | 256 kts | 134° |
| 2026-05-05 18:52 | 47.46528 | 8.22308 | 7910 ft | 258 kts | 128° |
| 2026-05-05 18:53 | 47.45939 | 8.24843 | 7906 ft | 269 kts | 98° |
| 2026-05-05 18:53 | 47.46204 | 8.27559 | 7637 ft | 272 kts | 68° |
| 2026-05-05 18:53 | 47.47295 | 8.29795 | 7257 ft | 269 kts | 36° |
| 2026-05-05 18:53 | 47.48930 | 8.30969 | 6858 ft | 259 kts | 4° |
| 2026-05-05 18:54 | 47.50659 | 8.30809 | 6501 ft | 244 kts | 333° |
| 2026-05-05 18:54 | 47.52077 | 8.29566 | 6134 ft | 236 kts | 316° |
| 2026-05-05 18:54 | 47.53332 | 8.28090 | 5981 ft | 226 kts | 316° |
| 2026-05-05 18:54 | 47.54697 | 8.26979 | 5842 ft | 223 kts | 331° |
| 2026-05-05 18:55 | 47.56139 | 8.26160 | 5616 ft | 221 kts | 333° |
| 2026-05-05 18:55 | 47.57576 | 8.25382 | 5380 ft | 219 kts | 336° |
| 2026-05-05 18:55 | 47.59106 | 8.25216 | 5129 ft | 228 kts | 9° |
| 2026-05-05 18:55 | 47.60500 | 8.26333 | 4872 ft | 233 kts | 44° |
| 2026-05-05 18:56 | 47.61287 | 8.28391 | 4590 ft | 231 kts | 79° |
| 2026-05-05 18:56 | 47.61216 | 8.30720 | 4321 ft | 226 kts | 108° |
| 2026-05-05 18:56 | 47.60724 | 8.32928 | 4082 ft | 224 kts | 112° |
| 2026-05-05 18:56 | 47.60186 | 8.35053 | 4006 ft | 215 kts | 114° |
| 2026-05-05 18:57 | 47.59666 | 8.37083 | 4043 ft | 209 kts | 114° |
| 2026-05-05 18:57 | 47.58946 | 8.38889 | 4014 ft | 200 kts | 139° |
| 2026-05-05 18:57 | 47.57930 | 8.40289 | 3965 ft | 199 kts | 142° |
| 2026-05-05 18:57 | 47.56928 | 8.41662 | 3775 ft | 198 kts | 142° |
| 2026-05-05 18:58 | 47.55948 | 8.43009 | 3530 ft | 185 kts | 142° |
| 2026-05-05 18:58 | 47.55026 | 8.44274 | 3289 ft | 178 kts | 141° |
| 2026-05-05 18:58 | 47.54122 | 8.45511 | 3056 ft | 176 kts | 141° |
| 2026-05-05 18:58 | 47.53231 | 8.46733 | 2828 ft | 171 kts | 141° |
| 2026-05-05 18:59 | 47.52394 | 8.47881 | 2609 ft | 157 kts | 141° |
| 2026-05-05 18:59 | 47.51631 | 8.48926 | 2392 ft | 144 kts | 140° |
| 2026-05-05 18:59 | 47.50912 | 8.49911 | 2149 ft | 138 kts | 139° |
| 2026-05-05 18:59 | 47.50214 | 8.50872 | 1943 ft | 135 kts | 139° |
| 2026-05-05 19:00 | 47.49528 | 8.51804 | 1764 ft | 132 kts | 139° |
| 2026-05-05 19:00 | 47.48853 | 8.52712 | 1613 ft | 130 kts | 139° |
| 2026-05-05 19:00 | 47.48194 | 8.53621 | 1466 ft | 129 kts | 140° |
| 2026-05-05 19:00 | 47.47543 | 8.54512 | 1399 ft | 121 kts | 140° |
| 2026-05-05 19:01 | 47.47035 | 8.55193 | 1395 ft | 75 kts | 137° |
| 2026-05-05 19:01 | 47.46801 | 8.55527 | 1400 ft | 26 kts | 137° |
| 2026-05-05 19:01 | 47.46700 | 8.55625 | 1399 ft | 12 kts | 156° |
| 2026-05-05 19:01 | 47.46607 | 8.55669 | 1404 ft | 15 kts | 163° |
| 2026-05-05 19:02 | 47.46502 | 8.55707 | 1398 ft | 16 kts | 168° |
| 2026-05-05 19:02 | 47.46399 | 8.55750 | 1400 ft | 8 kts | 156° |
| 2026-05-05 19:02 | 47.46347 | 8.55805 | 1400 ft | 10 kts | 137° |
| 2026-05-05 19:02 | 47.46316 | 8.55848 | 1401 ft | 3 kts | 137° |
| 2026-05-05 19:03 | 47.46302 | 8.55867 | 1401 ft | 2 kts | 137° |
| 2026-05-05 19:03 | 47.46297 | 8.55873 | 1404 ft | 0 kts | 136° |
| 2026-05-05 19:03 | 47.46285 | 8.55890 | 1402 ft | 6 kts | 136° |
| 2026-05-05 19:04 | 47.46239 | 8.55954 | 1398 ft | 11 kts | 137° |
| 2026-05-05 19:04 | 47.46169 | 8.56002 | 1402 ft | 12 kts | 180° |
| 2026-05-05 19:04 | 47.46085 | 8.55988 | 1401 ft | 13 kts | 186° |
| 2026-05-05 19:04 | 47.45993 | 8.55975 | 1402 ft | 14 kts | 185° |
| 2026-05-05 19:05 | 47.45895 | 8.55930 | 1405 ft | 14 kts | 200° |
| 2026-05-05 19:05 | 47.45789 | 8.55879 | 1400 ft | 17 kts | 190° |
| 2026-05-05 19:05 | 47.45692 | 8.55864 | 1400 ft | 11 kts | 186° |
| 2026-05-05 19:05 | 47.45671 | 8.55860 | 1398 ft | 1 kts | 186° |
| 2026-05-05 19:06 | 47.45646 | 8.55856 | 1397 ft | 9 kts | 186° |
| 2026-05-05 19:06 | 47.45575 | 8.55845 | 1397 ft | 12 kts | 186° |
| 2026-05-05 19:06 | 47.45507 | 8.55854 | 1404 ft | 0 kts | 143° |
| 2026-05-05 19:06 | 47.45503 | 8.55860 | 1405 ft | 4 kts | 136° |
| 2026-05-05 19:07 | 47.45476 | 8.55881 | 1400 ft | 4 kts | 173° |
| 2026-05-05 19:07 | 47.45442 | 8.55876 | 1397 ft | 3 kts | 188° |
| 2026-05-05 19:07 | 47.45430 | 8.55874 | 1397 ft | 1 kts | 186° |
| 2026-05-05 19:07 | 47.45426 | 8.55873 | 1397 ft | 1 kts | 186° |
| 2026-05-05 19:08 | 47.45419 | 8.55872 | 1397 ft | 0 kts | 186° |